createdAt,value
2017-11-24T01:36:39.118Z,1007.59
2017-11-24T01:36:39.684Z,1007.59
2017-11-24T01:36:40.284Z,1007.60
2017-11-24T01:36:40.883Z,1007.63
2017-11-24T01:36:41.490Z,1007.63
2017-11-24T01:36:42.082Z,1007.60
2017-11-24T01:36:42.682Z,1007.61
2017-11-24T01:36:43.282Z,1007.59
2017-11-24T01:37:37.762Z,1007.62
2017-11-24T01:37:38.360Z,1007.62
2017-11-24T01:37:39.023Z,1007.61
2017-11-24T01:37:39.582Z,1007.60
2017-11-24T01:37:40.160Z,1007.63
2017-11-24T01:37:40.760Z,1007.61
2017-11-24T01:37:41.358Z,1007.63
2017-11-24T01:37:41.958Z,1007.58
2017-11-24T01:38:36.439Z,1007.60
2017-11-24T01:38:37.037Z,1007.59
2017-11-24T01:38:37.635Z,1007.61
2017-11-24T01:38:38.239Z,1007.59
2017-11-24T01:38:38.851Z,1007.59
2017-11-24T01:38:39.499Z,1007.61
2017-11-24T01:38:40.035Z,1007.56
2017-11-24T01:38:40.638Z,1007.64
2017-11-24T01:39:35.127Z,1007.66
2017-11-24T01:39:35.718Z,1007.62
2017-11-24T01:39:36.313Z,1007.63
2017-11-24T01:39:36.918Z,1007.63
2017-11-24T01:39:37.513Z,1007.63
2017-11-24T01:39:38.112Z,1007.65
2017-11-24T01:39:38.712Z,1007.62
2017-11-24T01:39:39.313Z,1007.65
2017-11-24T01:40:34.842Z,1007.66
2017-11-24T01:40:35.344Z,1007.64
2017-11-24T01:40:35.943Z,1007.63
2017-11-24T01:40:36.545Z,1007.65
2017-11-24T01:40:37.144Z,1007.63
2017-11-24T01:40:37.744Z,1007.64
2017-11-24T01:40:38.343Z,1007.66
2017-11-24T01:41:32.371Z,1007.67
2017-11-24T01:41:32.963Z,1007.67
2017-11-24T01:41:33.585Z,1007.68
2017-11-24T01:41:34.168Z,1007.70
2017-11-24T01:41:34.763Z,1007.64
2017-11-24T01:41:35.368Z,1007.66
2017-11-24T01:41:35.960Z,1007.65
2017-11-24T01:41:36.561Z,1007.67
2017-11-24T01:42:31.071Z,1007.68
2017-11-24T01:42:31.639Z,1007.69
2017-11-24T01:42:32.246Z,1007.70
2017-11-24T01:42:32.836Z,1007.69
2017-11-24T01:42:33.439Z,1007.70
2017-11-24T01:42:34.047Z,1007.71
2017-11-24T01:42:34.656Z,1007.70
2017-11-24T01:42:35.238Z,1007.67
2017-11-24T01:43:29.616Z,1007.71
2017-11-24T01:43:30.212Z,1007.70
2017-11-24T01:43:30.811Z,1007.70
2017-11-24T01:43:31.411Z,1007.73
2017-11-24T01:43:32.017Z,1007.71
2017-11-24T01:43:32.611Z,1007.71
2017-11-24T01:43:33.226Z,1007.71
2017-11-24T01:43:33.812Z,1007.73
2017-11-24T01:44:28.296Z,1007.69
2017-11-24T01:44:28.889Z,1007.72
2017-11-24T01:44:29.490Z,1007.71
2017-11-24T01:44:30.087Z,1007.69
2017-11-24T01:44:30.698Z,1007.72
2017-11-24T01:44:31.292Z,1007.72
2017-11-24T01:44:31.887Z,1007.69
2017-11-24T01:44:32.494Z,1007.68
2017-11-24T01:45:26.988Z,1007.71
2017-11-24T01:45:27.564Z,1007.72
2017-11-24T01:45:28.160Z,1007.71
2017-11-24T01:45:28.761Z,1007.70
2017-11-24T01:45:29.360Z,1007.75
2017-11-24T01:45:29.961Z,1007.75
2017-11-24T01:45:30.561Z,1007.73
2017-11-24T01:45:31.165Z,1007.74
2017-11-24T01:46:25.664Z,1007.76
2017-11-24T01:46:26.239Z,1007.73
2017-11-24T01:46:26.840Z,1007.76
2017-11-24T01:46:27.438Z,1007.74
2017-11-24T01:46:28.045Z,1007.74
2017-11-24T01:46:28.639Z,1007.73
2017-11-24T01:46:29.239Z,1007.73
2017-11-24T01:46:29.859Z,1007.75
2017-11-24T01:47:24.319Z,1007.74
2017-11-24T01:47:24.921Z,1007.67
2017-11-24T01:47:25.519Z,1007.70
2017-11-24T01:47:26.180Z,1007.71
2017-11-24T01:47:26.726Z,1007.74
2017-11-24T01:47:27.314Z,1007.72
2017-11-24T01:47:27.913Z,1007.71
2017-11-24T01:47:28.514Z,1007.72
2017-11-24T01:48:23.017Z,1007.68
2017-11-24T01:48:23.595Z,1007.70
2017-11-24T01:48:24.198Z,1007.69
2017-11-24T01:48:24.789Z,1007.66
2017-11-24T01:48:25.391Z,1007.67
2017-11-24T01:48:25.989Z,1007.64
2017-11-24T01:48:26.591Z,1007.66
2017-11-24T01:48:27.192Z,1007.64
2017-11-24T01:49:21.670Z,1007.63
2017-11-24T01:49:22.267Z,1007.60
2017-11-24T01:49:22.867Z,1007.59
2017-11-24T01:49:23.467Z,1007.59
2017-11-24T01:49:24.065Z,1007.59
2017-11-24T01:49:24.666Z,1007.60
2017-11-24T01:49:25.266Z,1007.60
2017-11-24T01:49:25.869Z,1007.61
2017-11-24T01:50:20.385Z,1007.64
2017-11-24T01:50:20.945Z,1007.61
2017-11-24T01:50:21.548Z,1007.57
2017-11-24T01:50:22.145Z,1007.61
2017-11-24T01:50:22.743Z,1007.58
2017-11-24T01:50:23.342Z,1007.60
2017-11-24T01:50:23.942Z,1007.62
2017-11-24T01:50:24.542Z,1007.61
2017-11-24T01:51:18.931Z,1007.60
2017-11-24T01:51:19.518Z,1007.59
2017-11-24T01:51:20.121Z,1007.60
2017-11-24T01:51:20.717Z,1007.62
2017-11-24T01:51:21.316Z,1007.60
2017-11-24T01:51:21.918Z,1007.62
2017-11-24T01:51:22.518Z,1007.59
2017-11-24T01:51:23.121Z,1007.59
2017-11-24T01:52:16.578Z,1007.56
2017-11-24T01:52:17.173Z,1007.58
2017-11-24T01:52:17.767Z,1007.54
2017-11-24T01:52:18.370Z,1007.59
2017-11-24T01:52:18.969Z,1007.56
2017-11-24T01:52:19.568Z,1007.58
2017-11-24T01:52:20.167Z,1007.57
2017-11-24T01:52:20.792Z,1007.59
2017-11-24T01:53:15.566Z,1007.57
2017-11-24T01:53:16.066Z,1007.53
2017-11-24T01:53:16.666Z,1007.51
2017-11-24T01:53:17.266Z,1007.56
2017-11-24T01:53:17.864Z,1007.56
2017-11-24T01:53:18.469Z,1007.53
2017-11-24T01:53:19.065Z,1007.55
2017-11-24T01:53:19.663Z,1007.55
2017-11-24T01:54:14.130Z,1007.54
2017-11-24T01:54:14.729Z,1007.56
2017-11-24T01:54:15.322Z,1007.53
2017-11-24T01:54:15.923Z,1007.54
2017-11-24T01:54:16.523Z,1007.54
2017-11-24T01:54:17.123Z,1007.52
2017-11-24T01:54:17.722Z,1007.53
2017-11-24T01:54:18.321Z,1007.54
2017-11-24T01:55:12.804Z,1007.55
2017-11-24T01:55:13.401Z,1007.51
2017-11-24T01:55:14.000Z,1007.53
2017-11-24T01:55:14.601Z,1007.55
2017-11-24T01:55:15.199Z,1007.57
2017-11-24T01:55:15.800Z,1007.55
2017-11-24T01:55:16.399Z,1007.56
2017-11-24T01:55:17.063Z,1007.57
2017-11-24T01:56:10.968Z,1007.55
2017-11-24T01:56:11.564Z,1007.58
2017-11-24T01:56:12.164Z,1007.54
2017-11-24T01:56:12.763Z,1007.56
2017-11-24T01:56:13.363Z,1007.54
2017-11-24T01:56:13.963Z,1007.57
2017-11-24T01:56:14.563Z,1007.57
2017-11-24T01:57:09.027Z,1007.59
2017-11-24T01:57:09.625Z,1007.59
2017-11-24T01:57:10.224Z,1007.60
2017-11-24T01:57:10.825Z,1007.58
2017-11-24T01:57:11.424Z,1007.60
2017-11-24T01:57:12.024Z,1007.59
2017-11-24T01:57:12.624Z,1007.58
2017-11-24T01:57:13.224Z,1007.60
2017-11-24T01:58:08.229Z,1007.57
2017-11-24T01:58:08.815Z,1007.60
2017-11-24T01:58:09.416Z,1007.59
2017-11-24T01:58:10.013Z,1007.60
2017-11-24T01:58:10.652Z,1007.59
2017-11-24T01:58:11.256Z,1007.60
2017-11-24T01:58:11.881Z,1007.60
2017-11-24T01:59:05.645Z,1007.58
2017-11-24T01:59:06.147Z,1007.57
2017-11-24T01:59:06.748Z,1007.58
2017-11-24T01:59:07.347Z,1007.59
2017-11-24T01:59:07.945Z,1007.57
2017-11-24T01:59:08.546Z,1007.58
2017-11-24T01:59:09.145Z,1007.57
2017-11-24T01:59:09.745Z,1007.58
2017-11-24T02:00:05.366Z,1007.55
2017-11-24T02:00:05.959Z,1007.54
2017-11-24T02:00:06.559Z,1007.58
2017-11-24T02:00:07.159Z,1007.58
2017-11-24T02:00:07.761Z,1007.57
2017-11-24T02:00:08.362Z,1007.55
2017-11-24T02:00:08.959Z,1007.57
2017-11-24T02:01:02.505Z,1007.54
2017-11-24T02:01:03.107Z,1007.53
2017-11-24T02:01:03.699Z,1007.53
2017-11-24T02:01:04.300Z,1007.52
2017-11-24T02:01:04.898Z,1007.53
2017-11-24T02:01:05.515Z,1007.52
2017-11-24T02:01:06.100Z,1007.54
2017-11-24T02:01:06.702Z,1007.52
2017-11-24T02:02:00.156Z,1007.48
2017-11-24T02:02:00.755Z,1007.50
2017-11-24T02:02:01.351Z,1007.50
2017-11-24T02:02:01.951Z,1007.48
2017-11-24T02:02:02.553Z,1007.49
2017-11-24T02:02:03.153Z,1007.49
2017-11-24T02:02:03.751Z,1007.51
2017-11-24T02:02:04.351Z,1007.49
2017-11-24T02:02:57.808Z,1007.43
2017-11-24T02:02:58.408Z,1007.41
2017-11-24T02:02:59.008Z,1007.39
2017-11-24T02:02:59.603Z,1007.41
2017-11-24T02:03:00.203Z,1007.43
2017-11-24T02:03:00.804Z,1007.41
2017-11-24T02:03:01.401Z,1007.41
2017-11-24T02:03:02.002Z,1007.40
2017-11-24T02:03:56.483Z,1007.35
2017-11-24T02:03:57.084Z,1007.32
2017-11-24T02:03:57.678Z,1007.34
2017-11-24T02:03:58.276Z,1007.35
2017-11-24T02:03:58.910Z,1007.39
2017-11-24T02:04:00.036Z,1007.37
2017-11-24T02:04:00.545Z,1007.34
2017-11-24T02:04:54.076Z,1007.26
2017-11-24T02:04:54.632Z,1007.27
2017-11-24T02:04:55.229Z,1007.27
2017-11-24T02:04:55.835Z,1007.25
2017-11-24T02:04:56.429Z,1007.23
2017-11-24T02:04:57.029Z,1007.25
2017-11-24T02:04:57.629Z,1007.26
2017-11-24T02:04:58.228Z,1007.29
2017-11-24T02:05:51.685Z,1007.25
2017-11-24T02:05:52.285Z,1007.24
2017-11-24T02:05:52.880Z,1007.27
2017-11-24T02:05:53.483Z,1007.25
2017-11-24T02:05:54.760Z,1007.27
2017-11-24T02:05:55.264Z,1007.23
2017-11-24T02:05:55.864Z,1007.23
2017-11-24T02:06:49.337Z,1007.23
2017-11-24T02:06:49.931Z,1007.23
2017-11-24T02:06:50.531Z,1007.24
2017-11-24T02:06:51.131Z,1007.19
2017-11-24T02:06:51.734Z,1007.23
2017-11-24T02:06:52.332Z,1007.20
2017-11-24T02:06:52.930Z,1007.23
2017-11-24T02:06:53.534Z,1007.24
2017-11-24T02:07:46.987Z,1007.27
2017-11-24T02:07:47.583Z,1007.26
2017-11-24T02:07:48.183Z,1007.26
2017-11-24T02:07:48.781Z,1007.24
2017-11-24T02:07:49.382Z,1007.25
2017-11-24T02:07:49.984Z,1007.23
2017-11-24T02:07:50.582Z,1007.25
2017-11-24T02:07:51.182Z,1007.26
2017-11-24T02:09:03.786Z,1007.27
2017-11-24T02:09:04.382Z,1007.24
2017-11-24T02:09:04.983Z,1007.23
2017-11-24T02:09:05.582Z,1007.22
2017-11-24T02:09:06.183Z,1007.25
2017-11-24T02:09:06.786Z,1007.25
2017-11-24T02:09:07.417Z,1007.21
2017-11-24T02:09:07.984Z,1007.23
2017-11-24T02:09:08.613Z,1007.25
2017-11-24T02:09:09.183Z,1007.26
2017-11-24T02:10:03.218Z,1007.27
2017-11-24T02:10:03.776Z,1007.28
2017-11-24T02:10:04.376Z,1007.28
2017-11-24T02:10:04.979Z,1007.28
2017-11-24T02:10:05.574Z,1007.25
2017-11-24T02:10:06.176Z,1007.25
2017-11-24T02:10:06.775Z,1007.24
2017-11-24T02:10:07.374Z,1007.24
2017-11-24T02:11:04.823Z,1007.25
2017-11-24T02:11:05.425Z,1007.25
2017-11-24T02:11:06.022Z,1007.24
2017-11-24T02:11:59.508Z,1007.21
2017-11-24T02:12:00.102Z,1007.23
2017-11-24T02:12:00.713Z,1007.23
2017-11-24T02:12:01.310Z,1007.25
2017-11-24T02:12:01.903Z,1007.23
2017-11-24T02:12:02.504Z,1007.22
2017-11-24T02:12:03.102Z,1007.20
2017-11-24T02:12:03.706Z,1007.19
2017-11-24T02:12:57.670Z,1007.27
2017-11-24T02:12:58.270Z,1007.25
2017-11-24T02:12:58.866Z,1007.22
2017-11-24T02:12:59.467Z,1007.27
2017-11-24T02:13:00.066Z,1007.25
2017-11-24T02:13:00.668Z,1007.24
2017-11-24T02:13:01.266Z,1007.25
2017-11-24T02:13:54.822Z,1007.31
2017-11-24T02:13:55.412Z,1007.29
2017-11-24T02:13:56.008Z,1007.31
2017-11-24T02:13:56.607Z,1007.32
2017-11-24T02:13:57.207Z,1007.33
2017-11-24T02:13:57.807Z,1007.33
2017-11-24T02:13:58.407Z,1007.28
2017-11-24T02:13:59.006Z,1007.30
2017-11-24T02:14:52.460Z,1007.31
2017-11-24T02:14:53.058Z,1007.32
2017-11-24T02:14:53.658Z,1007.34
2017-11-24T02:14:54.258Z,1007.33
2017-11-24T02:14:54.858Z,1007.29
2017-11-24T02:14:55.460Z,1007.30
2017-11-24T02:14:56.059Z,1007.29
2017-11-24T02:14:56.665Z,1007.32
2017-11-24T02:15:51.172Z,1007.27
2017-11-24T02:15:51.734Z,1007.28
2017-11-24T02:15:52.340Z,1007.27
2017-11-24T02:15:52.933Z,1007.27
2017-11-24T02:15:53.533Z,1007.25
2017-11-24T02:15:54.132Z,1007.26
2017-11-24T02:15:54.737Z,1007.24
2017-11-24T02:15:55.332Z,1007.26
2017-11-24T02:16:49.811Z,1007.24
2017-11-24T02:16:50.410Z,1007.25
2017-11-24T02:16:51.008Z,1007.24
2017-11-24T02:16:51.608Z,1007.26
2017-11-24T02:16:52.208Z,1007.24
2017-11-24T02:16:52.808Z,1007.27
2017-11-24T02:16:53.409Z,1007.28
2017-11-24T02:16:54.007Z,1007.27
2017-11-24T02:17:48.490Z,1007.26
2017-11-24T02:17:49.086Z,1007.30
2017-11-24T02:17:49.686Z,1007.27
2017-11-24T02:17:50.331Z,1007.24
2017-11-24T02:17:50.888Z,1007.28
2017-11-24T02:17:51.483Z,1007.28
2017-11-24T02:17:52.092Z,1007.26
2017-11-24T02:17:52.683Z,1007.24
2017-11-24T02:18:47.163Z,1007.31
2017-11-24T02:18:47.787Z,1007.32
2017-11-24T02:18:48.361Z,1007.33
2017-11-24T02:18:48.965Z,1007.33
2017-11-24T02:18:49.567Z,1007.35
2017-11-24T02:18:50.159Z,1007.31
2017-11-24T02:18:50.759Z,1007.27
2017-11-24T02:18:51.359Z,1007.29
2017-11-24T02:19:45.327Z,1007.33
2017-11-24T02:19:45.929Z,1007.31
2017-11-24T02:19:46.525Z,1007.36
2017-11-24T02:19:47.123Z,1007.36
2017-11-24T02:19:47.722Z,1007.34
2017-11-24T02:19:48.322Z,1007.31
2017-11-24T02:19:48.923Z,1007.31
2017-11-24T02:20:42.500Z,1007.38
2017-11-24T02:20:43.065Z,1007.37
2017-11-24T02:20:43.665Z,1007.40
2017-11-24T02:20:44.300Z,1007.37
2017-11-24T02:20:44.886Z,1007.36
2017-11-24T02:20:45.464Z,1007.36
2017-11-24T02:20:46.065Z,1007.38
2017-11-24T02:20:46.662Z,1007.38
2017-11-24T02:21:40.228Z,1007.46
2017-11-24T02:21:40.819Z,1007.45
2017-11-24T02:21:41.419Z,1007.48
2017-11-24T02:21:42.018Z,1007.45
2017-11-24T02:21:42.619Z,1007.45
2017-11-24T02:21:43.220Z,1007.48
2017-11-24T02:21:43.818Z,1007.42
2017-11-24T02:21:44.417Z,1007.46
2017-11-24T02:22:38.897Z,1007.52
2017-11-24T02:22:39.494Z,1007.52
2017-11-24T02:22:40.092Z,1007.49
2017-11-24T02:22:40.713Z,1007.50
2017-11-24T02:22:41.324Z,1007.55
2017-11-24T02:22:41.897Z,1007.55
2017-11-24T02:22:42.490Z,1007.55
2017-11-24T02:22:43.090Z,1007.56
2017-11-24T02:23:38.083Z,1007.52
2017-11-24T02:23:38.682Z,1007.49
2017-11-24T02:23:39.282Z,1007.53
2017-11-24T02:23:39.883Z,1007.53
2017-11-24T02:23:40.480Z,1007.52
2017-11-24T02:23:41.080Z,1007.52
2017-11-24T02:23:41.680Z,1007.53
2017-11-24T02:24:35.226Z,1007.50
2017-11-24T02:24:35.822Z,1007.46
2017-11-24T02:24:36.427Z,1007.45
2017-11-24T02:24:37.021Z,1007.48
2017-11-24T02:24:37.620Z,1007.48
2017-11-24T02:24:38.223Z,1007.48
2017-11-24T02:24:38.820Z,1007.49
2017-11-24T02:24:39.470Z,1007.48
2017-11-24T02:25:32.876Z,1007.40
2017-11-24T02:25:33.477Z,1007.43
2017-11-24T02:25:34.074Z,1007.43
2017-11-24T02:25:34.672Z,1007.44
2017-11-24T02:25:35.272Z,1007.43
2017-11-24T02:25:35.872Z,1007.43
2017-11-24T02:25:36.485Z,1007.46
2017-11-24T02:25:37.074Z,1007.44
2017-11-24T02:26:31.068Z,1007.37
2017-11-24T02:26:31.639Z,1007.42
2017-11-24T02:26:32.234Z,1007.38
2017-11-24T02:26:32.839Z,1007.38
2017-11-24T02:26:33.436Z,1007.38
2017-11-24T02:26:34.043Z,1007.34
2017-11-24T02:26:34.637Z,1007.36
2017-11-24T02:27:40.775Z,1007.33
2017-11-24T02:27:41.369Z,1007.33
2017-11-24T02:27:41.971Z,1007.32
2017-11-24T02:27:42.570Z,1007.33
2017-11-24T02:27:43.170Z,1007.34
2017-11-24T02:27:43.772Z,1007.34
2017-11-24T02:27:44.380Z,1007.33
2017-11-24T02:27:45.041Z,1007.36
2017-11-24T02:28:38.428Z,1007.32
2017-11-24T02:28:39.026Z,1007.28
2017-11-24T02:28:39.655Z,1007.29
2017-11-24T02:28:40.229Z,1007.35
2017-11-24T02:28:40.824Z,1007.31
2017-11-24T02:28:41.424Z,1007.30
2017-11-24T02:28:42.022Z,1007.30
2017-11-24T02:28:42.631Z,1007.31
2017-11-24T02:29:36.080Z,1007.26
2017-11-24T02:29:36.675Z,1007.27
2017-11-24T02:29:37.277Z,1007.29
2017-11-24T02:29:37.875Z,1007.28
2017-11-24T02:29:38.475Z,1007.28
2017-11-24T02:29:39.073Z,1007.27
2017-11-24T02:29:39.685Z,1007.28
2017-11-24T02:29:40.278Z,1007.31
2017-11-24T02:30:36.800Z,1007.21
2017-11-24T02:30:37.396Z,1007.24
2017-11-24T02:30:37.997Z,1007.25
2017-11-24T02:31:32.543Z,1007.23
2017-11-24T02:31:33.105Z,1007.24
2017-11-24T02:31:33.703Z,1007.23
2017-11-24T02:31:34.303Z,1007.20
2017-11-24T02:31:34.902Z,1007.20
2017-11-24T02:31:35.501Z,1007.21
2017-11-24T02:31:36.102Z,1007.23
2017-11-24T02:31:36.907Z,1007.25
2017-11-24T02:32:31.184Z,1007.19
2017-11-24T02:32:31.781Z,1007.24
2017-11-24T02:32:32.381Z,1007.17
2017-11-24T02:32:32.979Z,1007.21
2017-11-24T02:32:33.579Z,1007.20
2017-11-24T02:32:34.179Z,1007.20
2017-11-24T02:32:34.779Z,1007.23
2017-11-24T02:32:35.381Z,1007.21
2017-11-24T02:33:28.835Z,1007.25
2017-11-24T02:33:29.432Z,1007.27
2017-11-24T02:33:30.033Z,1007.26
2017-11-24T02:33:30.631Z,1007.24
2017-11-24T02:33:31.232Z,1007.29
2017-11-24T02:33:31.831Z,1007.28
2017-11-24T02:33:32.435Z,1007.24
2017-11-24T02:33:33.031Z,1007.27
2017-11-24T02:52:25.502Z,1007.10
2017-11-24T02:52:26.075Z,1007.09
2017-11-24T02:52:26.682Z,1007.07
2017-11-24T02:52:27.279Z,1007.11
2017-11-24T02:52:27.876Z,1007.12
2017-11-24T02:52:28.475Z,1007.11
2017-11-24T02:52:29.076Z,1007.10
2017-11-24T02:52:29.674Z,1007.06
2017-11-24T02:53:23.129Z,1007.12
2017-11-24T02:53:23.728Z,1007.14
2017-11-24T02:53:24.329Z,1007.14
2017-11-24T02:53:24.926Z,1007.11
2017-11-24T02:53:25.529Z,1007.12
2017-11-24T02:53:26.166Z,1007.11
2017-11-24T02:53:26.732Z,1007.12
2017-11-24T02:53:27.328Z,1007.12
2017-11-24T02:54:20.784Z,1007.13
2017-11-24T02:54:21.380Z,1007.14
2017-11-24T02:54:21.982Z,1007.13
2017-11-24T02:54:22.582Z,1007.13
2017-11-24T02:54:23.180Z,1007.13
2017-11-24T02:54:23.782Z,1007.15
2017-11-24T02:54:24.380Z,1007.12
2017-11-24T02:54:25.013Z,1007.13
2017-11-24T02:55:18.457Z,1007.12
2017-11-24T02:55:19.042Z,1007.07
2017-11-24T02:55:19.636Z,1007.10
2017-11-24T02:55:20.232Z,1007.12
2017-11-24T02:55:20.834Z,1007.16
2017-11-24T02:55:21.431Z,1007.12
2017-11-24T02:55:22.030Z,1007.13
2017-11-24T02:55:22.631Z,1007.13
2017-11-24T02:56:16.088Z,1007.11
2017-11-24T02:56:16.685Z,1007.14
2017-11-24T02:56:17.294Z,1007.10
2017-11-24T02:56:17.884Z,1007.09
2017-11-24T02:56:18.483Z,1007.14
2017-11-24T02:56:19.100Z,1007.08
2017-11-24T02:56:19.683Z,1007.09
2017-11-24T02:56:20.283Z,1007.14
2017-11-24T02:57:13.739Z,1007.08
2017-11-24T02:57:14.337Z,1007.10
2017-11-24T02:57:14.935Z,1007.07
2017-11-24T02:57:15.537Z,1007.09
2017-11-24T02:57:16.138Z,1007.10
2017-11-24T02:57:16.744Z,1007.08
2017-11-24T02:57:17.351Z,1007.08
2017-11-24T02:57:17.934Z,1007.09
2017-11-24T02:58:12.436Z,1007.03
2017-11-24T02:58:13.012Z,1007.09
2017-11-24T02:58:13.613Z,1007.07
2017-11-24T02:58:14.211Z,1007.07
2017-11-24T02:58:14.809Z,1007.06
2017-11-24T02:58:15.414Z,1007.06
2017-11-24T02:58:16.010Z,1007.07
2017-11-24T02:58:16.616Z,1007.09
2017-11-24T02:59:10.067Z,1007.03
2017-11-24T02:59:10.665Z,1007.04
2017-11-24T02:59:11.266Z,1007.02
2017-11-24T02:59:11.863Z,1007.01
2017-11-24T02:59:12.465Z,1007.02
2017-11-24T02:59:13.075Z,1007.03
2017-11-24T02:59:13.664Z,1007.04
2017-11-24T02:59:14.262Z,1007.03
2017-11-24T03:00:07.749Z,1007.00
2017-11-24T03:00:08.316Z,1006.97
2017-11-24T03:00:08.915Z,1007.05
2017-11-24T03:00:09.514Z,1007.01
2017-11-24T03:00:10.114Z,1007.00
2017-11-24T03:00:10.714Z,1006.98
2017-11-24T03:00:11.315Z,1007.03
2017-11-24T03:00:11.915Z,1006.97
2017-11-24T03:01:06.395Z,1006.99
2017-11-24T03:01:06.993Z,1006.97
2017-11-24T03:01:07.593Z,1007.01
2017-11-24T03:01:08.193Z,1006.96
2017-11-24T03:01:08.791Z,1006.98
2017-11-24T03:01:09.394Z,1007.01
2017-11-24T03:01:09.994Z,1007.01
2017-11-24T03:01:10.590Z,1006.98
2017-11-24T03:02:04.049Z,1007.02
2017-11-24T03:02:04.648Z,1007.03
2017-11-24T03:02:05.245Z,1006.96
2017-11-24T03:02:05.843Z,1006.99
2017-11-24T03:02:06.449Z,1006.95
2017-11-24T03:02:07.046Z,1006.99
2017-11-24T03:02:07.649Z,1007.01
2017-11-24T03:02:08.241Z,1006.98
2017-11-24T03:03:01.700Z,1006.99
2017-11-24T03:03:02.299Z,1007.01
2017-11-24T03:03:02.899Z,1007.02
2017-11-24T03:03:03.494Z,1007.00
2017-11-24T03:03:04.093Z,1007.01
2017-11-24T03:03:04.694Z,1006.98
2017-11-24T03:03:05.298Z,1007.01
2017-11-24T03:03:05.922Z,1006.99
2017-11-24T03:04:00.374Z,1007.00
2017-11-24T03:04:00.973Z,1006.99
2017-11-24T03:04:01.571Z,1007.01
2017-11-24T03:04:02.175Z,1006.99
2017-11-24T03:04:02.774Z,1006.98
2017-11-24T03:04:03.393Z,1006.93
2017-11-24T03:04:03.970Z,1006.98
2017-11-24T03:04:04.576Z,1006.99
2017-11-24T03:04:59.050Z,1007.03
2017-11-24T03:04:59.646Z,1007.05
2017-11-24T03:05:00.245Z,1007.01
2017-11-24T03:05:00.845Z,1007.00
2017-11-24T03:05:01.464Z,1007.03
2017-11-24T03:05:02.047Z,1007.01
2017-11-24T03:05:02.646Z,1007.02
2017-11-24T03:06:16.183Z,1007.02
2017-11-24T03:06:16.755Z,1007.00
2017-11-24T03:06:17.355Z,1007.00
2017-11-24T03:06:17.956Z,1007.00
2017-11-24T03:06:18.609Z,1006.96
2017-11-24T03:06:19.153Z,1007.00
2017-11-24T03:06:19.754Z,1006.98
2017-11-24T03:06:20.355Z,1006.98
2017-11-24T03:07:14.835Z,1007.02
2017-11-24T03:07:15.438Z,1006.96
2017-11-24T03:07:16.034Z,1006.99
2017-11-24T03:07:16.628Z,1006.99
2017-11-24T03:07:17.229Z,1006.99
2017-11-24T03:07:17.831Z,1007.01
2017-11-24T03:07:18.432Z,1006.97
2017-11-24T03:07:19.031Z,1006.99
2017-11-24T03:08:13.509Z,1007.03
2017-11-24T03:08:14.105Z,1006.99
2017-11-24T03:08:14.710Z,1007.00
2017-11-24T03:08:15.308Z,1007.00
2017-11-24T03:08:15.912Z,1006.99
2017-11-24T03:08:16.508Z,1006.97
2017-11-24T03:08:17.109Z,1006.99
2017-11-24T03:08:17.705Z,1006.97
2017-11-24T03:09:11.673Z,1006.96
2017-11-24T03:09:12.274Z,1006.96
2017-11-24T03:09:12.869Z,1006.99
2017-11-24T03:09:13.468Z,1006.97
2017-11-24T03:09:14.084Z,1006.96
2017-11-24T03:09:14.669Z,1007.01
2017-11-24T03:09:15.272Z,1006.99
2017-11-24T03:10:20.384Z,1006.98
2017-11-24T03:10:20.981Z,1006.97
2017-11-24T03:10:21.581Z,1006.98
2017-11-24T03:10:22.179Z,1006.98
2017-11-24T03:10:22.781Z,1006.95
2017-11-24T03:10:23.381Z,1006.96
2017-11-24T03:10:24.012Z,1006.97
2017-11-24T03:11:25.030Z,1007.00
2017-11-24T03:11:25.595Z,1006.98
2017-11-24T03:11:26.197Z,1006.97
2017-11-24T03:11:26.796Z,1007.02
2017-11-24T03:11:27.395Z,1006.97
2017-11-24T03:11:27.994Z,1006.98
2017-11-24T03:11:28.597Z,1006.97
2017-11-24T03:11:29.195Z,1006.97
2017-11-24T03:11:29.793Z,1006.99
2017-11-24T03:11:30.395Z,1006.96
2017-11-24T03:11:30.995Z,1006.98
2017-11-24T03:11:31.593Z,1006.97
2017-11-24T03:12:27.464Z,1006.96
2017-11-24T03:12:28.067Z,1006.96
2017-11-24T03:12:28.665Z,1006.95
2017-11-24T03:12:29.263Z,1006.94
2017-11-24T03:12:29.897Z,1006.96
2017-11-24T03:12:30.473Z,1006.93
2017-11-24T03:12:31.058Z,1006.99
2017-11-24T03:13:24.605Z,1006.93
2017-11-24T03:13:25.199Z,1006.92
2017-11-24T03:13:25.803Z,1006.94
2017-11-24T03:13:26.398Z,1006.93
2017-11-24T03:13:26.999Z,1006.93
2017-11-24T03:13:27.598Z,1006.95
2017-11-24T03:13:28.199Z,1006.91
2017-11-24T03:13:28.798Z,1006.87
2017-11-24T03:14:22.803Z,1006.90
2017-11-24T03:14:23.367Z,1006.91
2017-11-24T03:14:23.964Z,1006.93
2017-11-24T03:14:24.563Z,1006.95
2017-11-24T03:14:25.162Z,1006.92
2017-11-24T03:14:25.772Z,1006.93
2017-11-24T03:14:26.375Z,1006.94
2017-11-24T03:15:19.906Z,1006.96
2017-11-24T03:15:20.503Z,1006.93
2017-11-24T03:15:21.104Z,1006.91
2017-11-24T03:15:21.703Z,1006.89
2017-11-24T03:15:22.306Z,1006.89
2017-11-24T03:15:22.911Z,1006.90
2017-11-24T03:15:23.504Z,1006.92
2017-11-24T03:15:24.132Z,1006.93
2017-11-24T03:16:17.558Z,1006.94
2017-11-24T03:16:18.154Z,1006.90
2017-11-24T03:16:18.754Z,1006.89
2017-11-24T03:16:19.353Z,1006.91
2017-11-24T03:16:19.959Z,1006.91
2017-11-24T03:16:20.552Z,1006.91
2017-11-24T03:16:21.153Z,1006.90
2017-11-24T03:16:21.754Z,1006.90
2017-11-24T03:17:16.255Z,1006.92
2017-11-24T03:17:16.836Z,1006.94
2017-11-24T03:17:17.430Z,1006.93
2017-11-24T03:17:18.030Z,1006.92
2017-11-24T03:17:18.629Z,1006.92
2017-11-24T03:17:19.230Z,1006.90
2017-11-24T03:17:19.829Z,1006.90
2017-11-24T03:17:20.429Z,1006.91
2017-11-24T03:18:14.909Z,1006.91
2017-11-24T03:18:15.511Z,1006.90
2017-11-24T03:18:16.105Z,1006.90
2017-11-24T03:18:16.703Z,1006.95
2017-11-24T03:18:17.305Z,1006.94
2017-11-24T03:18:17.909Z,1006.94
2017-11-24T03:18:18.585Z,1006.92
2017-11-24T03:18:19.107Z,1006.93
2017-11-24T03:19:13.585Z,1006.88
2017-11-24T03:19:14.182Z,1006.90
2017-11-24T03:19:14.780Z,1006.87
2017-11-24T03:19:15.383Z,1006.90
2017-11-24T03:19:15.982Z,1006.85
2017-11-24T03:19:16.580Z,1006.85
2017-11-24T03:19:17.182Z,1006.91
2017-11-24T03:19:17.781Z,1006.86
2017-11-24T03:20:11.249Z,1006.90
2017-11-24T03:20:11.834Z,1006.90
2017-11-24T03:20:12.435Z,1006.87
2017-11-24T03:20:13.034Z,1006.89
2017-11-24T03:20:13.633Z,1006.89
2017-11-24T03:20:14.235Z,1006.85
2017-11-24T03:20:14.834Z,1006.87
2017-11-24T03:20:15.433Z,1006.85
2017-11-24T03:21:10.424Z,1006.93
2017-11-24T03:21:11.021Z,1006.90
2017-11-24T03:21:11.621Z,1006.89
2017-11-24T03:21:12.243Z,1006.94
2017-11-24T03:21:12.822Z,1006.88
2017-11-24T03:21:13.422Z,1006.89
2017-11-24T03:21:14.020Z,1006.92
2017-11-24T03:22:07.567Z,1006.89
2017-11-24T03:22:08.162Z,1006.93
2017-11-24T03:22:08.768Z,1006.94
2017-11-24T03:22:09.363Z,1006.88
2017-11-24T03:22:09.980Z,1006.86
2017-11-24T03:22:10.562Z,1006.91
2017-11-24T03:22:11.161Z,1006.89
2017-11-24T03:22:11.761Z,1006.89
2017-11-24T03:23:06.293Z,1006.88
2017-11-24T03:23:06.795Z,1006.89
2017-11-24T03:23:07.397Z,1006.88
2017-11-24T03:23:07.996Z,1006.86
2017-11-24T03:23:08.595Z,1006.85
2017-11-24T03:23:09.194Z,1006.87
2017-11-24T03:23:09.794Z,1006.87
2017-11-24T03:24:04.815Z,1006.86
2017-11-24T03:24:05.418Z,1006.83
2017-11-24T03:24:06.013Z,1006.86
2017-11-24T03:24:06.628Z,1006.84
2017-11-24T03:24:07.209Z,1006.81
2017-11-24T03:24:07.808Z,1006.82
2017-11-24T03:24:08.408Z,1006.84
2017-11-24T03:24:09.010Z,1006.85
2017-11-24T03:25:02.466Z,1006.82
2017-11-24T03:25:03.064Z,1006.83
2017-11-24T03:25:03.662Z,1006.80
2017-11-24T03:25:04.262Z,1006.81
2017-11-24T03:25:04.862Z,1006.78
2017-11-24T03:25:05.463Z,1006.79
2017-11-24T03:25:06.061Z,1006.79
2017-11-24T03:25:06.662Z,1006.79
2017-11-24T03:26:00.223Z,1006.79
2017-11-24T03:26:00.818Z,1006.82
2017-11-24T03:26:01.416Z,1006.81